sensor_id;sensor_type;location;lat;lon;timestamp;pressure;altitude;pressure_sealevel;temperature;humidity
5872;BME280;2962;51.312;7.378;2023-02-14T00:00:39;99214.91;;;4.82;100.00
5872;BME280;2962;51.312;7.378;2023-02-14T00:03:05;99203.28;;;4.82;100.00
5872;BME280;2962;51.312;7.378;2023-02-14T00:05:30;99207.13;;;4.76;100.00
5872;BME280;2962;51.312;7.378;2023-02-14T00:07:55;99203.72;;;4.65;100.00
5872;BME280;2962;51.312;7.378;2023-02-14T00:10:21;99209.13;;;4.65;100.00
5872;BME280;2962;51.312;7.378;2023-02-14T00:12:46;99210.22;;;4.64;100.00
5872;BME280;2962;51.312;7.378;2023-02-14T00:15:11;99204.31;;;4.62;100.00
5872;BME280;2962;51.312;7.378;2023-02-14T00:17:54;99209.66;;;4.67;100.00
5872;BME280;2962;51.312;7.378;2023-02-14T00:20:23;99195.22;;;4.53;100.00
5872;BME280;2962;51.312;7.378;2023-02-14T00:22:49;99215.91;;;4.62;100.00
5872;BME280;2962;51.312;7.378;2023-02-14T00:25:15;99200.53;;;4.63;100.00
5872;BME280;2962;51.312;7.378;2023-02-14T00:27:41;99202.38;;;4.68;100.00
5872;BME280;2962;51.312;7.378;2023-02-14T00:30:07;99210.19;;;4.69;100.00
5872;BME280;2962;51.312;7.378;2023-02-14T00:32:33;99201.84;;;4.65;100.00
5872;BME280;2962;51.312;7.378;2023-02-14T00:34:58;99201.38;;;4.58;100.00
5872;BME280;2962;51.312;7.378;2023-02-14T00:37:24;99186.56;;;4.56;100.00
5872;BME280;2962;51.312;7.378;2023-02-14T00:39:49;99196.25;;;4.57;100.00
5872;BME280;2962;51.312;7.378;2023-02-14T00:42:15;99201.94;;;4.55;100.00
5872;BME280;2962;51.312;7.378;2023-02-14T00:44:41;99199.59;;;4.49;100.00
5872;BME280;2962;51.312;7.378;2023-02-14T00:47:06;99203.13;;;4.44;100.00
5872;BME280;2962;51.312;7.378;2023-02-14T00:49:32;99211.53;;;4.43;100.00
5872;BME280;2962;51.312;7.378;2023-02-14T00:51:57;99209.91;;;4.41;100.00
5872;BME280;2962;51.312;7.378;2023-02-14T00:54:23;99215.06;;;4.38;100.00
5872;BME280;2962;51.312;7.378;2023-02-14T00:56:48;99205.13;;;4.33;100.00
5872;BME280;2962;51.312;7.378;2023-02-14T00:59:13;99198.19;;;4.27;100.00
5872;BME280;2962;51.312;7.378;2023-02-14T01:01:39;99201.38;;;4.29;100.00
5872;BME280;2962;51.312;7.378;2023-02-14T01:04:04;99204.25;;;4.38;100.00
5872;BME280;2962;51.312;7.378;2023-02-14T01:06:30;99195.13;;;4.34;100.00
5872;BME280;2962;51.312;7.378;2023-02-14T01:08:55;99210.50;;;4.38;100.00
5872;BME280;2962;51.312;7.378;2023-02-14T01:11:22;99207.50;;;4.40;100.00
5872;BME280;2962;51.312;7.378;2023-02-14T01:13:50;99206.69;;;4.39;100.00
5872;BME280;2962;51.312;7.378;2023-02-14T01:16:18;99210.66;;;4.47;100.00
5872;BME280;2962;51.312;7.378;2023-02-14T01:18:45;99224.97;;;4.48;100.00
5872;BME280;2962;51.312;7.378;2023-02-14T01:21:27;99211.78;;;4.46;100.00
5872;BME280;2962;51.312;7.378;2023-02-14T01:23:55;99209.63;;;4.43;100.00
5872;BME280;2962;51.312;7.378;2023-02-14T01:26:22;99208.34;;;4.35;100.00
5872;BME280;2962;51.312;7.378;2023-02-14T01:28:47;99213.13;;;4.44;100.00
5872;BME280;2962;51.312;7.378;2023-02-14T01:31:18;99209.91;;;4.41;100.00
5872;BME280;2962;51.312;7.378;2023-02-14T01:33:45;99210.50;;;4.38;100.00
5872;BME280;2962;51.312;7.378;2023-02-14T01:36:19;99206.50;;;4.31;100.00
5872;BME280;2962;51.312;7.378;2023-02-14T01:38:45;99212.91;;;4.40;100.00
5872;BME280;2962;51.312;7.378;2023-02-14T01:41:11;99201.44;;;4.24;100.00
5872;BME280;2962;51.312;7.378;2023-02-14T01:46:13;99201.38;;;4.29;100.00
5872;BME280;2962;51.312;7.378;2023-02-14T01:48:39;99206.50;;;4.31;100.00
5872;BME280;2962;51.312;7.378;2023-02-14T01:51:04;99209.66;;;4.38;100.00
5872;BME280;2962;51.312;7.378;2023-02-14T01:53:29;99204.50;;;4.41;100.00
5872;BME280;2962;51.312;7.378;2023-02-14T01:56:01;99200.75;;;4.37;100.00
5872;BME280;2962;51.312;7.378;2023-02-14T01:58:31;99180.91;;;4.28;100.00
5872;BME280;2962;51.312;7.378;2023-02-14T02:01:01;99195.13;;;4.34;100.00
5872;BME280;2962;51.312;7.378;2023-02-14T02:03:33;99201.06;;;4.36;100.00
5872;BME280;2962;51.312;7.378;2023-02-14T02:06:13;99194.06;;;4.35;100.00
5872;BME280;2962;51.312;7.378;2023-02-14T02:08:42;99202.41;;;4.38;100.00
5872;BME280;2962;51.312;7.378;2023-02-14T02:11:11;99197.75;;;4.44;100.00
5872;BME280;2962;51.312;7.378;2023-02-14T02:13:37;99186.78;;;4.30;100.00
5872;BME280;2962;51.312;7.378;2023-02-14T02:16:23;99188.38;;;4.36;100.00
5872;BME280;2962;51.312;7.378;2023-02-14T02:21:41;99191.06;;;4.36;100.00
5872;BME280;2962;51.312;7.378;2023-02-14T02:24:25;99182.00;;;4.27;100.00
5872;BME280;2962;51.312;7.378;2023-02-14T02:30:09;99187.56;;;4.36;100.00
5872;BME280;2962;51.312;7.378;2023-02-14T02:36:03;99182.03;;;4.22;100.00
5872;BME280;2962;51.312;7.378;2023-02-14T02:39:26;99175.63;;;4.13;100.00
5872;BME280;2962;51.312;7.378;2023-02-14T02:41:51;99173.19;;;4.16;100.00
5872;BME280;2962;51.312;7.378;2023-02-14T02:44:40;99176.13;;;4.20;100.00
5872;BME280;2962;51.312;7.378;2023-02-14T02:47:25;99165.84;;;4.22;100.00
5872;BME280;2962;51.312;7.378;2023-02-14T02:55:58;99158.44;;;4.33;100.00
5872;BME280;2962;51.312;7.378;2023-02-14T02:59:03;99163.91;;;4.28;100.00
5872;BME280;2962;51.312;7.378;2023-02-14T03:01:34;99160.97;;;4.24;100.00
5872;BME280;2962;51.312;7.378;2023-02-14T03:04:04;99161.69;;;4.35;100.00
5872;BME280;2962;51.312;7.378;2023-02-14T03:06:50;99146.28;;;4.35;100.00
5872;BME280;2962;51.312;7.378;2023-02-14T03:14:46;99169.78;;;4.59;100.00
5872;BME280;2962;51.312;7.378;2023-02-14T03:17:22;99161.22;;;4.52;100.00
5872;BME280;2962;51.312;7.378;2023-02-14T03:20:13;99155.81;;;4.52;100.00
5872;BME280;2962;51.312;7.378;2023-02-14T03:25:41;99164.91;;;4.61;100.00
5872;BME280;2962;51.312;7.378;2023-02-14T03:28:41;99161.13;;;4.62;100.00
5872;BME280;2962;51.312;7.378;2023-02-14T03:31:32;99148.75;;;4.56;100.00
5872;BME280;2962;51.312;7.378;2023-02-14T03:34:06;99145.25;;;4.55;100.00
5872;BME280;2962;51.312;7.378;2023-02-14T03:36:38;99157.91;;;4.60;100.00
5872;BME280;2962;51.312;7.378;2023-02-14T03:39:09;99154.72;;;4.53;100.00
5872;BME280;2962;51.312;7.378;2023-02-14T03:41:48;99159.63;;;4.51;100.00
5872;BME280;2962;51.312;7.378;2023-02-14T03:44:17;99143.59;;;4.35;100.00
5872;BME280;2962;51.312;7.378;2023-02-14T03:46:50;99153.28;;;4.36;100.00
5872;BME280;2962;51.312;7.378;2023-02-14T03:49:21;99158.69;;;4.36;100.00
5872;BME280;2962;51.312;7.378;2023-02-14T03:51:49;99160.88;;;4.34;100.00
5872;BME280;2962;51.312;7.378;2023-02-14T03:54:19;99147.41;;;4.29;100.00
5872;BME280;2962;51.312;7.378;2023-02-14T03:56:49;99149.66;;;4.22;100.00
5872;BME280;2962;51.312;7.378;2023-02-14T03:59:19;99157.25;;;4.15;100.00
5872;BME280;2962;51.312;7.378;2023-02-14T04:04:31;99144.38;;;4.07;100.00
5872;BME280;2962;51.312;7.378;2023-02-14T04:07:14;99136.84;;;4.09;100.00
5872;BME280;2962;51.312;7.378;2023-02-14T04:09:39;99134.19;;;4.04;100.00
5872;BME280;2962;51.312;7.378;2023-02-14T04:12:05;99137.88;;;4.13;100.00
5872;BME280;2962;51.312;7.378;2023-02-14T04:14:31;99133.81;;;4.15;100.00
5872;BME280;2962;51.312;7.378;2023-02-14T04:16:56;99140.50;;;4.18;100.00
5872;BME280;2962;51.312;7.378;2023-02-14T04:19:40;99126.38;;;4.02;100.00
5872;BME280;2962;51.312;7.378;2023-02-14T04:22:05;99137.16;;;4.02;100.00
5872;BME280;2962;51.312;7.378;2023-02-14T04:24:30;99139.09;;;3.97;100.00
5872;BME280;2962;51.312;7.378;2023-02-14T04:26:55;99133.50;;;3.88;100.00
5872;BME280;2962;51.312;7.378;2023-02-14T04:29:45;99152.72;;;3.81;100.00
5872;BME280;2962;51.312;7.378;2023-02-14T04:32:15;99131.28;;;3.66;100.00
5872;BME280;2962;51.312;7.378;2023-02-14T04:34:41;99145.97;;;3.79;100.00
5872;BME280;2962;51.312;7.378;2023-02-14T04:37:07;99136.56;;;3.76;100.00
5872;BME280;2962;51.312;7.378;2023-02-14T04:39:33;99135.81;;;3.71;100.00
5872;BME280;2962;51.312;7.378;2023-02-14T04:41:58;99131.88;;;3.58;100.00
5872;BME280;2962;51.312;7.378;2023-02-14T04:44:24;99146.16;;;3.58;100.00
5872;BME280;2962;51.312;7.378;2023-02-14T04:46:49;99134.09;;;3.46;100.00
5872;BME280;2962;51.312;7.378;2023-02-14T04:49:15;99128.78;;;3.35;100.00
5872;BME280;2962;51.312;7.378;2023-02-14T04:51:41;99132.22;;;3.46;100.00
5872;BME280;2962;51.312;7.378;2023-02-14T04:54:06;99129.19;;;3.53;100.00
5872;BME280;2962;51.312;7.378;2023-02-14T04:56:32;99118.63;;;3.61;100.00
5872;BME280;2962;51.312;7.378;2023-02-14T04:58:57;99123.53;;;3.54;100.00
5872;BME280;2962;51.312;7.378;2023-02-14T05:01:22;99116.31;;;3.45;100.00
5872;BME280;2962;51.312;7.378;2023-02-14T05:03:48;99126.22;;;3.54;100.00
5872;BME280;2962;51.312;7.378;2023-02-14T05:06:13;99121.97;;;3.48;100.00
5872;BME280;2962;51.312;7.378;2023-02-14T05:08:38;99121.97;;;3.48;100.00
5872;BME280;2962;51.312;7.378;2023-02-14T05:11:04;99112.53;;;3.46;100.00
5872;BME280;2962;51.312;7.378;2023-02-14T05:13:29;99104.44;;;3.46;100.00
5872;BME280;2962;51.312;7.378;2023-02-14T05:15:56;99102.81;;;3.50;100.00
5872;BME280;2962;51.312;7.378;2023-02-14T05:18:21;99104.69;;;3.54;100.00
5872;BME280;2962;51.312;7.378;2023-02-14T05:20:51;99101.94;;;3.59;100.00
5872;BME280;2962;51.312;7.378;2023-02-14T05:23:16;99094.94;;;3.58;100.00
5872;BME280;2962;51.312;7.378;2023-02-14T05:25:42;99100.66;;;3.52;100.00
5872;BME280;2962;51.312;7.378;2023-02-14T05:28:09;99101.19;;;3.49;100.00
5872;BME280;2962;51.312;7.378;2023-02-14T05:30:35;99087.97;;;3.52;100.00
5872;BME280;2962;51.312;7.378;2023-02-14T05:33:01;99086.41;;;3.46;100.00
5872;BME280;2962;51.312;7.378;2023-02-14T05:35:26;99086.13;;;3.48;100.00
5872;BME280;2962;51.312;7.378;2023-02-14T05:37:52;99088.56;;;3.44;100.00
5872;BME280;2962;51.312;7.378;2023-02-14T05:40:17;99091.28;;;3.44;100.00
5872;BME280;2962;51.312;7.378;2023-02-14T05:42:43;99072.47;;;3.34;100.00
5872;BME280;2962;51.312;7.378;2023-02-14T05:45:09;99077.06;;;3.33;100.00
5872;BME280;2962;51.312;7.378;2023-02-14T05:47:34;99093.47;;;3.37;100.00
5872;BME280;2962;51.312;7.378;2023-02-14T05:49:59;99094.31;;;3.32;100.00
5872;BME280;2962;51.312;7.378;2023-02-14T05:52:25;99084.09;;;3.29;100.00
5872;BME280;2962;51.312;7.378;2023-02-14T05:54:50;99090.28;;;3.35;100.00
5872;BME280;2962;51.312;7.378;2023-02-14T05:57:16;99092.19;;;3.29;100.00
5872;BME280;2962;51.312;7.378;2023-02-14T05:59:41;99088.19;;;3.22;100.00
5872;BME280;2962;51.312;7.378;2023-02-14T06:02:07;99075.25;;;3.24;100.00
5872;BME280;2962;51.312;7.378;2023-02-14T06:04:32;99081.50;;;3.19;100.00
5872;BME280;2962;51.312;7.378;2023-02-14T06:06:57;99093.31;;;3.23;100.00
5872;BME280;2962;51.312;7.378;2023-02-14T06:09:23;99085.50;;;3.22;100.00
5872;BME280;2962;51.312;7.378;2023-02-14T06:11:48;99084.09;;;3.29;100.00
5872;BME280;2962;51.312;7.378;2023-02-14T06:14:13;99092.97;;;3.35;100.00
5872;BME280;2962;51.312;7.378;2023-02-14T06:16:39;99100.78;;;3.31;100.00
5872;BME280;2962;51.312;7.378;2023-02-14T06:19:04;99098.94;;;3.27;100.00
5872;BME280;2962;51.312;7.378;2023-02-14T06:21:29;99112.94;;;3.29;100.00
5872;BME280;2962;51.312;7.378;2023-02-14T06:23:55;99100.00;;;3.31;100.00
5872;BME280;2962;51.312;7.378;2023-02-14T06:26:20;99091.66;;;3.27;100.00
5872;BME280;2962;51.312;7.378;2023-02-14T06:28:45;99096.28;;;3.22;100.00
5872;BME280;2962;51.312;7.378;2023-02-14T06:31:17;99107.28;;;3.25;100.00
5872;BME280;2962;51.312;7.378;2023-02-14T06:33:42;99107.59;;;3.24;100.00
5872;BME280;2962;51.312;7.378;2023-02-14T06:36:07;99122.94;;;3.23;100.00
5872;BME280;2962;51.312;7.378;2023-02-14T06:38:33;99119.16;;;3.24;100.00
5872;BME280;2962;51.312;7.378;2023-02-14T06:41:03;99105.19;;;3.17;100.00
5872;BME280;2962;51.312;7.378;2023-02-14T06:43:28;99123.69;;;3.29;100.00
5872;BME280;2962;51.312;7.378;2023-02-14T06:45:54;99118.56;;;3.32;100.00
5872;BME280;2962;51.312;7.378;2023-02-14T06:48:19;99113.19;;;3.32;100.00
5872;BME280;2962;51.312;7.378;2023-02-14T06:50:45;99118.84;;;3.31;100.00
5872;BME280;2962;51.312;7.378;2023-02-14T06:53:11;99121.75;;;3.34;100.00
5872;BME280;2962;51.312;7.378;2023-02-14T06:55:36;99119.66;;;3.26;100.00
5872;BME280;2962;51.312;7.378;2023-02-14T06:58:01;99129.59;;;3.36;100.00
5872;BME280;2962;51.312;7.378;2023-02-14T07:00:27;99109.44;;;3.28;100.00
5872;BME280;2962;51.312;7.378;2023-02-14T07:02:52;99123.16;;;3.32;100.00
5872;BME280;2962;51.312;7.378;2023-02-14T07:05:17;99116.16;;;3.31;100.00
5872;BME280;2962;51.312;7.378;2023-02-14T07:07:43;99114.22;;;3.36;100.00
5872;BME280;2962;51.312;7.378;2023-02-14T07:10:09;99119.63;;;3.36;100.00
5872;BME280;2962;51.312;7.378;2023-02-14T07:12:34;99116.63;;;3.43;100.00
5872;BME280;2962;51.312;7.378;2023-02-14T07:14:59;99123.28;;;3.51;100.00
5872;BME280;2962;51.312;7.378;2023-02-14T07:17:24;99118.75;;;3.46;100.00
5872;BME280;2962;51.312;7.378;2023-02-14T07:19:50;99127.53;;;3.57;100.00
5872;BME280;2962;51.312;7.378;2023-02-14T07:22:15;99128.63;;;3.56;100.00
5872;BME280;2962;51.312;7.378;2023-02-14T07:24:40;99132.38;;;3.60;100.00
5872;BME280;2962;51.312;7.378;2023-02-14T07:27:06;99130.16;;;3.67;100.00
5872;BME280;2962;51.312;7.378;2023-02-14T07:29:31;99124.50;;;3.68;100.00
5872;BME280;2962;51.312;7.378;2023-02-14T07:31:57;99137.66;;;3.75;100.00
5872;BME280;2962;51.312;7.378;2023-02-14T07:34:22;99131.75;;;3.73;100.00
5872;BME280;2962;51.312;7.378;2023-02-14T07:36:48;99127.66;;;3.81;100.00
5872;BME280;2962;51.312;7.378;2023-02-14T07:39:13;99123.50;;;3.94;100.00
5872;BME280;2962;51.312;7.378;2023-02-14T07:41:38;99137.06;;;4.12;100.00
5872;BME280;2962;51.312;7.378;2023-02-14T07:44:04;99136.16;;;4.22;100.00
5872;BME280;2962;51.312;7.378;2023-02-14T07:46:29;99110.81;;;4.23;100.00
5872;BME280;2962;51.312;7.378;2023-02-14T07:48:54;99130.56;;;4.43;100.00
5872;BME280;2962;51.312;7.378;2023-02-14T07:51:19;99132.06;;;4.54;100.00
5872;BME280;2962;51.312;7.378;2023-02-14T07:53:45;99125.00;;;4.58;100.00
5872;BME280;2962;51.312;7.378;2023-02-14T07:56:10;99118.56;;;4.54;100.00
5872;BME280;2962;51.312;7.378;2023-02-14T07:58:35;99106.53;;;4.65;100.00
5872;BME280;2962;51.312;7.378;2023-02-14T08:01:01;99123.38;;;4.81;100.00
5872;BME280;2962;51.312;7.378;2023-02-14T08:03:26;99114.41;;;4.85;100.00
5872;BME280;2962;51.312;7.378;2023-02-14T08:05:51;99122.97;;;4.93;100.00
5872;BME280;2962;51.312;7.378;2023-02-14T08:08:24;99125.00;;;5.01;100.00
5872;BME280;2962;51.312;7.378;2023-02-14T08:10:50;99117.13;;;5.04;100.00
5872;BME280;2962;51.312;7.378;2023-02-14T08:13:15;99126.50;;;5.12;100.00
5872;BME280;2962;51.312;7.378;2023-02-14T08:15:40;99117.63;;;5.06;100.00
5872;BME280;2962;51.312;7.378;2023-02-14T08:18:30;99113.94;;;5.21;100.00
5872;BME280;2962;51.312;7.378;2023-02-14T08:20:56;99119.09;;;5.36;100.00
5872;BME280;2962;51.312;7.378;2023-02-14T08:23:21;99130.84;;;5.46;100.00
5872;BME280;2962;51.312;7.378;2023-02-14T08:25:47;99121.44;;;5.62;100.00
5872;BME280;2962;51.312;7.378;2023-02-14T08:28:13;99097.53;;;5.69;100.00
5872;BME280;2962;51.312;7.378;2023-02-14T08:30:39;99116.28;;;5.79;100.00
5872;BME280;2962;51.312;7.378;2023-02-14T08:33:05;99117.66;;;5.96;100.00
5872;BME280;2962;51.312;7.378;2023-02-14T08:35:31;99113.88;;;5.97;100.00
5872;BME280;2962;51.312;7.378;2023-02-14T08:37:56;99126.34;;;6.11;100.00
5872;BME280;2962;51.312;7.378;2023-02-14T08:40:21;99121.31;;;6.19;100.00
5872;BME280;2962;51.312;7.378;2023-02-14T08:42:47;99122.19;;;6.47;100.00
5872;BME280;2962;51.312;7.378;2023-02-14T08:45:12;99116.16;;;6.64;100.00
5872;BME280;2962;51.312;7.378;2023-02-14T08:47:38;99117.03;;;7.00;100.00
5872;BME280;2962;51.312;7.378;2023-02-14T08:50:10;99119.56;;;6.97;100.00
5872;BME280;2962;51.312;7.378;2023-02-14T08:52:38;99127.56;;;7.02;100.00
5872;BME280;2962;51.312;7.378;2023-02-14T08:55:04;99126.75;;;7.01;100.00
5872;BME280;2962;51.312;7.378;2023-02-14T08:57:29;99130.78;;;7.04;100.00
5872;BME280;2962;51.312;7.378;2023-02-14T08:59:54;99132.38;;;7.05;100.00
5872;BME280;2962;51.312;7.378;2023-02-14T09:02:20;99131.44;;;7.23;100.00
5872;BME280;2962;51.312;7.378;2023-02-14T09:04:45;99135.09;;;7.41;100.00
5872;BME280;2962;51.312;7.378;2023-02-14T09:07:11;99130.56;;;7.50;100.00
5872;BME280;2962;51.312;7.378;2023-02-14T09:09:37;99126.19;;;7.63;100.00
5872;BME280;2962;51.312;7.378;2023-02-14T09:12:04;99118.53;;;7.88;100.00
5872;BME280;2962;51.312;7.378;2023-02-14T09:14:34;99116.59;;;8.11;100.00
5872;BME280;2962;51.312;7.378;2023-02-14T09:16:59;99118.66;;;8.05;100.00
5872;BME280;2962;51.312;7.378;2023-02-14T09:19:29;99117.38;;;8.33;100.00
5872;BME280;2962;51.312;7.378;2023-02-14T09:21:54;99118.25;;;8.43;100.00
5872;BME280;2962;51.312;7.378;2023-02-14T09:24:19;99114.97;;;8.63;100.00
5872;BME280;2962;51.312;7.378;2023-02-14T09:26:45;99105.75;;;8.73;100.00
5872;BME280;2962;51.312;7.378;2023-02-14T09:29:10;99094.56;;;8.83;100.00
5872;BME280;2962;51.312;7.378;2023-02-14T09:31:37;99104.03;;;8.94;100.00
5872;BME280;2962;51.312;7.378;2023-02-14T09:34:02;99083.91;;;9.04;100.00
5872;BME280;2962;51.312;7.378;2023-02-14T09:36:27;99083.75;;;9.00;100.00
5872;BME280;2962;51.312;7.378;2023-02-14T09:39:11;99086.63;;;9.13;100.00
5872;BME280;2962;51.312;7.378;2023-02-14T09:44:25;99097.03;;;9.71;100.00
5872;BME280;2962;51.312;7.378;2023-02-14T09:46:54;99105.16;;;9.97;100.00
5872;BME280;2962;51.312;7.378;2023-02-14T09:49:36;99093.03;;;9.77;100.00
5872;BME280;2962;51.312;7.378;2023-02-14T09:52:05;99094.31;;;9.89;100.00
5872;BME280;2962;51.312;7.378;2023-02-14T09:54:34;99097.47;;;10.08;100.00
5872;BME280;2962;51.312;7.378;2023-02-14T09:57:10;99091.38;;;10.02;100.00
5872;BME280;2962;51.312;7.378;2023-02-14T09:59:48;99091.19;;;10.25;100.00
5872;BME280;2962;51.312;7.378;2023-02-14T10:02:43;99085.88;;;10.29;100.00
5872;BME280;2962;51.312;7.378;2023-02-14T10:05:16;99068.81;;;10.49;100.00
5872;BME280;2962;51.312;7.378;2023-02-14T10:07:55;99083.56;;;10.48;100.00
5872;BME280;2962;51.312;7.378;2023-02-14T10:10:43;99085.56;;;10.30;100.00
5872;BME280;2962;51.312;7.378;2023-02-14T10:13:25;99075.03;;;10.11;100.00
5872;BME280;2962;51.312;7.378;2023-02-14T10:16:14;99083.34;;;10.62;100.00
5872;BME280;2962;51.312;7.378;2023-02-14T10:18:46;99074.50;;;10.94;100.00
5872;BME280;2962;51.312;7.378;2023-02-14T10:21:23;99071.97;;;11.10;100.00
5872;BME280;2962;51.312;7.378;2023-02-14T10:23:59;99077.16;;;11.45;100.00
5872;BME280;2962;51.312;7.378;2023-02-14T10:26:36;99070.88;;;11.53;100.00
5872;BME280;2962;51.312;7.378;2023-02-14T10:29:10;99068.22;;;11.78;100.00
5872;BME280;2962;51.312;7.378;2023-02-14T10:34:36;99068.06;;;11.62;100.00
5872;BME280;2962;51.312;7.378;2023-02-14T10:37:17;99076.34;;;11.86;100.00
5872;BME280;2962;51.312;7.378;2023-02-14T10:45:41;99060.84;;;12.60;100.00
5872;BME280;2962;51.312;7.378;2023-02-14T10:48:56;99060.19;;;12.88;100.00
5872;BME280;2962;51.312;7.378;2023-02-14T10:51:44;99063.22;;;13.23;100.00
5872;BME280;2962;51.312;7.378;2023-02-14T10:54:24;99059.06;;;13.41;100.00
5872;BME280;2962;51.312;7.378;2023-02-14T10:57:16;99059.78;;;13.26;100.00
5872;BME280;2962;51.312;7.378;2023-02-14T10:59:59;99064.66;;;13.20;100.00
5872;BME280;2962;51.312;7.378;2023-02-14T11:02:46;99057.91;;;13.71;100.00
5872;BME280;2962;51.312;7.378;2023-02-14T11:07:49;99045.31;;;13.98;100.00
5872;BME280;2962;51.312;7.378;2023-02-14T11:10:14;99046.81;;;13.95;100.00
5872;BME280;2962;51.312;7.378;2023-02-14T11:12:41;99038.03;;;13.74;100.00
5872;BME280;2962;51.312;7.378;2023-02-14T11:15:21;99038.78;;;14.02;100.00
5872;BME280;2962;51.312;7.378;2023-02-14T11:17:47;99040.19;;;13.96;100.00
5872;BME280;2962;51.312;7.378;2023-02-14T11:22:48;99033.75;;;14.36;100.00
5872;BME280;2962;51.312;7.378;2023-02-14T11:25:21;99036.00;;;14.14;100.00
5872;BME280;2962;51.312;7.378;2023-02-14T11:27:49;99033.16;;;14.27;100.00
5872;BME280;2962;51.312;7.378;2023-02-14T11:30:25;99034.13;;;14.19;100.00
5872;BME280;2962;51.312;7.378;2023-02-14T11:32:52;99015.53;;;14.28;100.00
5872;BME280;2962;51.312;7.378;2023-02-14T11:35:23;99023.66;;;14.40;100.00
5872;BME280;2962;51.312;7.378;2023-02-14T11:37:53;99028.09;;;14.60;100.00
5872;BME280;2962;51.312;7.378;2023-02-14T11:40:30;99021.91;;;14.99;100.00
5872;BME280;2962;51.312;7.378;2023-02-14T11:42:59;99019.19;;;15.18;99.55
5872;BME280;2962;51.312;7.378;2023-02-14T11:48:12;99012.81;;;15.14;95.62
5872;BME280;2962;51.312;7.378;2023-02-14T11:50:39;99003.44;;;15.73;92.62
5872;BME280;2962;51.312;7.378;2023-02-14T11:53:09;99000.03;;;15.80;89.28
5872;BME280;2962;51.312;7.378;2023-02-14T11:55:36;98990.13;;;16.21;85.63
5872;BME280;2962;51.312;7.378;2023-02-14T11:58:03;98994.59;;;16.56;80.53
5872;BME280;2962;51.312;7.378;2023-02-14T12:00:32;98992.72;;;17.17;77.39
5872;BME280;2962;51.312;7.378;2023-02-14T12:03:00;98992.56;;;17.06;73.09
5872;BME280;2962;51.312;7.378;2023-02-14T12:05:34;98986.59;;;17.30;70.48
5872;BME280;2962;51.312;7.378;2023-02-14T12:08:07;98992.56;;;17.06;73.16
5872;BME280;2962;51.312;7.378;2023-02-14T12:10:34;98982.78;;;17.08;70.91
5872;BME280;2962;51.312;7.378;2023-02-14T12:13:21;98983.94;;;17.75;67.97
5872;BME280;2962;51.312;7.378;2023-02-14T12:15:51;98987.84;;;18.11;65.13
5872;BME280;2962;51.312;7.378;2023-02-14T12:24:31;98969.75;;;18.17;57.35
5872;BME280;2962;51.312;7.378;2023-02-14T12:27:14;98965.84;;;18.73;54.50
5872;BME280;2962;51.312;7.378;2023-02-14T12:30:12;98955.00;;;18.47;54.77
5872;BME280;2962;51.312;7.378;2023-02-14T12:32:47;98956.94;;;18.39;55.48
5872;BME280;2962;51.312;7.378;2023-02-14T12:38:33;98942.19;;;18.72;54.57
5872;BME280;2962;51.312;7.378;2023-02-14T12:41:20;98958.91;;;19.01;56.99
5872;BME280;2962;51.312;7.378;2023-02-14T12:43:56;98940.78;;;19.18;56.19
5872;BME280;2962;51.312;7.378;2023-02-14T13:05:26;98917.03;;;21.13;47.56
5872;BME280;2962;51.312;7.378;2023-02-14T13:10:46;98923.94;;;21.61;45.78
5872;BME280;2962;51.312;7.378;2023-02-14T13:16:18;98921.59;;;22.11;44.67
5872;BME280;2962;51.312;7.378;2023-02-14T13:21:21;98913.25;;;22.90;41.07
5872;BME280;2962;51.312;7.378;2023-02-14T13:23:50;98906.19;;;22.82;42.62
5872;BME280;2962;51.312;7.378;2023-02-14T13:26:19;98909.25;;;23.83;40.57
5872;BME280;2962;51.312;7.378;2023-02-14T13:28:50;98899.41;;;23.48;39.46
5872;BME280;2962;51.312;7.378;2023-02-14T13:31:18;98905.38;;;23.20;39.21
5872;BME280;2962;51.312;7.378;2023-02-14T13:33:53;98896.34;;;23.70;39.42
5872;BME280;2962;51.312;7.378;2023-02-14T13:36:20;98899.41;;;24.26;38.54
5872;BME280;2962;51.312;7.378;2023-02-14T13:38:48;98891.09;;;24.22;37.87
5872;BME280;2962;51.312;7.378;2023-02-14T13:41:16;98893.06;;;23.75;38.22
5872;BME280;2962;51.312;7.378;2023-02-14T13:43:52;98895.22;;;24.38;36.55
5872;BME280;2962;51.312;7.378;2023-02-14T13:52:00;98886.69;;;24.01;38.07
5872;BME280;2962;51.312;7.378;2023-02-14T13:54:43;98882.88;;;23.68;37.64
5872;BME280;2962;51.312;7.378;2023-02-14T13:57:39;98884.03;;;24.61;36.69
5872;BME280;2962;51.312;7.378;2023-02-14T14:02:46;98888.00;;;25.40;35.29
5872;BME280;2962;51.312;7.378;2023-02-14T14:10:50;98876.16;;;26.34;33.83
5872;BME280;2962;51.312;7.378;2023-02-14T14:18:47;98865.38;;;27.19;32.05
5872;BME280;2962;51.312;7.378;2023-02-14T14:26:45;98859.47;;;26.30;32.61
5872;BME280;2962;51.312;7.378;2023-02-14T14:29:17;98862.88;;;24.64;34.59
5872;BME280;2962;51.312;7.378;2023-02-14T14:31:44;98864.34;;;25.28;34.57
5872;BME280;2962;51.312;7.378;2023-02-14T14:34:16;98862.03;;;25.59;33.90
5872;BME280;2962;51.312;7.378;2023-02-14T14:36:42;98857.88;;;25.15;34.26
5872;BME280;2962;51.312;7.378;2023-02-14T14:39:09;98863.91;;;25.98;33.07
5872;BME280;2962;51.312;7.378;2023-02-14T14:41:34;98856.13;;;26.93;32.14
5872;BME280;2962;51.312;7.378;2023-02-14T14:44:00;98845.69;;;26.23;32.39
5872;BME280;2962;51.312;7.378;2023-02-14T14:46:25;98851.53;;;26.28;32.38
5872;BME280;2962;51.312;7.378;2023-02-14T14:48:52;98850.72;;;26.73;31.55
5872;BME280;2962;51.312;7.378;2023-02-14T14:51:27;98844.22;;;27.18;31.35
5872;BME280;2962;51.312;7.378;2023-02-14T14:54:04;98835.59;;;27.51;30.65
5872;BME280;2962;51.312;7.378;2023-02-14T14:56:36;98849.50;;;27.42;30.80
5872;BME280;2962;51.312;7.378;2023-02-14T14:59:19;98836.69;;;27.66;30.90
5872;BME280;2962;51.312;7.378;2023-02-14T15:01:50;98835.38;;;27.58;30.36
5872;BME280;2962;51.312;7.378;2023-02-14T15:06:44;98825.41;;;26.06;31.33
5872;BME280;2962;51.312;7.378;2023-02-14T15:09:28;98836.28;;;24.99;32.54
5872;BME280;2962;51.312;7.378;2023-02-14T15:11:55;98832.50;;;23.82;34.07
5872;BME280;2962;51.312;7.378;2023-02-14T15:14:42;98818.84;;;23.92;34.12
5872;BME280;2962;51.312;7.378;2023-02-14T15:17:21;98826.34;;;23.44;34.71
5872;BME280;2962;51.312;7.378;2023-02-14T15:19:51;98821.78;;;22.38;36.62
5872;BME280;2962;51.312;7.378;2023-02-14T15:22:19;98825.22;;;22.84;36.32
5872;BME280;2962;51.312;7.378;2023-02-14T15:24:46;98821.31;;;23.35;35.12
5872;BME280;2962;51.312;7.378;2023-02-14T15:27:17;98811.63;;;23.20;35.19